Time;durP1;ratioP1;P1;durP2;ratioP2;P2;SDS_P1;SDS_P2;PMS_P1;PMS_P2;Temp;Humidity;BMP_temperature;BMP_pressure;BME280_temperature;BME280_humidity;BME280_pressure;Samples;Min_cycle;Max_cycle;Signal;HPM_P1;HPM_P2
2022/12/02 00:01:27;;;;;;;;;;;;;;;18.71;55.85;102052.55;2210804;79;50752;-76
2022/12/02 00:04:29;;;;;;;;;;;;;;;18.76;55.72;102049.45;2234901;79;50657;-75
2022/12/02 00:07:32;;;;;;;;;;;;;;;18.74;55.70;102046.04;2241472;79;50785;-75
2022/12/02 00:10:34;;;;;;;;;;;;;;;18.69;55.78;102050.00;2235359;79;25026;-75
2022/12/02 00:13:37;;;;;;;;;;;;;;;18.67;55.82;102045.28;2210480;79;51086;-74
2022/12/02 00:16:38;;;;;;;;;;;;;;;18.63;55.90;102039.05;2241428;79;50372;-76
2022/12/02 00:19:40;;;;;;;;;;;;;;;18.58;56.02;102044.85;2241466;79;50408;-75
2022/12/02 00:22:42;;;;;;;;;;;;;;;18.55;56.09;102045.62;2241404;79;50307;-75
2022/12/02 00:25:45;;;;;;;;;;;;;;;18.49;56.22;102042.55;2210610;79;50346;-74
2022/12/02 00:28:46;;;;;;;;;;;;;;;18.46;56.36;102040.17;2241493;79;51488;-75
2022/12/02 00:31:48;;;;;;;;;;;;;;;18.50;56.35;102036.72;2241469;79;50316;-76
2022/12/02 00:34:50;;;;;;;;;;;;;;;18.56;56.22;102032.09;2234855;79;50243;-76
2022/12/02 00:37:51;;;;;;;;;;;;;;;18.64;56.07;102033.52;2210681;79;51166;-75
2022/12/02 00:40:53;;;;;;;;;;;;;;;18.70;55.92;102032.07;2234919;79;50424;-76
2022/12/02 00:47:14;;;;;;;;;;;;;;;18.76;55.82;102030.69;2236295;79;23392;-75
2022/12/02 00:50:16;;;;;;;;;;;;;;;18.72;55.92;102030.92;2210876;79;52377;-75
2022/12/02 00:53:17;;;;;;;;;;;;;;;18.70;56.00;102022.69;2234815;79;50110;-75
2022/12/02 00:56:19;;;;;;;;;;;;;;;18.65;56.04;102014.25;2235265;79;50393;-75
2022/12/02 00:59:20;;;;;;;;;;;;;;;18.60;56.13;102010.70;2241473;79;50259;-75
2022/12/02 01:02:22;;;;;;;;;;;;;;;18.56;56.17;102016.51;2210522;79;51722;-75
2022/12/02 01:05:23;;;;;;;;;;;;;;;18.52;56.27;102023.14;2240673;79;51599;-75
2022/12/02 01:08:26;;;;;;;;;;;;;;;18.48;56.44;102020.77;2241483;79;51566;-75
2022/12/02 01:11:27;;;;;;;;;;;;;;;18.52;56.44;102020.47;2241426;79;50481;-74
2022/12/02 01:14:29;;;;;;;;;;;;;;;18.56;56.39;102013.83;2234649;79;50445;-75
2022/12/02 01:17:31;;;;;;;;;;;;;;;18.60;56.40;102012.52;2237195;78;51593;-75
2022/12/02 01:20:32;;;;;;;;;;;;;;;18.65;56.21;102015.59;2278979;78;51496;-75
2022/12/02 01:23:34;;;;;;;;;;;;;;;18.71;56.01;102010.98;2278889;78;51507;-75
2022/12/02 01:26:35;;;;;;;;;;;;;;;18.77;55.83;102014.42;2247216;78;52547;-75
2022/12/02 01:29:37;;;;;;;;;;;;;;;18.79;55.69;102013.78;2287018;77;51485;-74
2022/12/02 01:32:38;;;;;;;;;;;;;;;18.77;55.68;102013.59;2276683;78;51452;-75
2022/12/02 01:35:40;;;;;;;;;;;;;;;18.75;55.69;102016.41;2276688;78;50414;-75
2022/12/02 01:38:42;;;;;;;;;;;;;;;18.70;55.78;102010.63;2276691;78;50901;-75
2022/12/02 01:41:43;;;;;;;;;;;;;;;18.65;55.85;102006.20;2287698;77;50291;-75
2022/12/02 01:44:45;;;;;;;;;;;;;;;18.61;55.96;102016.41;2287702;78;50591;-75
2022/12/02 01:47:46;;;;;;;;;;;;;;;18.56;56.12;102012.48;2287860;78;51656;-75
2022/12/02 01:50:48;;;;;;;;;;;;;;;18.50;56.18;102014.77;2287853;78;51411;-74
2022/12/02 01:53:50;;;;;;;;;;;;;;;18.48;56.37;102014.07;2287560;77;51626;-75
2022/12/02 01:56:51;;;;;;;;;;;;;;;18.53;56.31;102015.47;2287792;78;51435;-75
2022/12/02 01:59:53;;;;;;;;;;;;;;;18.60;56.14;102009.36;2287756;78;50655;-75
2022/12/02 02:02:54;;;;;;;;;;;;;;;18.69;55.98;102012.97;2276735;78;51421;-74
2022/12/02 02:05:56;;;;;;;;;;;;;;;18.75;55.81;102011.05;2287735;78;50405;-74
2022/12/02 02:08:57;;;;;;;;;;;;;;;18.79;55.74;102008.42;2287821;78;51611;-75
2022/12/02 02:11:59;;;;;;;;;;;;;;;18.77;55.81;102007.72;2287745;77;51585;-75
2022/12/02 02:15:02;;;;;;;;;;;;;;;18.74;55.87;102003.98;2276552;78;51053;-76
2022/12/02 02:18:04;;;;;;;;;;;;;;;18.71;55.92;102005.63;2287201;77;51435;-75
2022/12/02 02:21:06;;;;;;;;;;;;;;;18.66;55.96;101998.02;2276906;78;51545;-75
2022/12/02 02:24:08;;;;;;;;;;;;;;;18.60;56.11;101996.43;2287600;77;51605;-75
2022/12/02 02:27:09;;;;;;;;;;;;;;;18.57;56.21;101996.23;2276557;78;52508;-75
2022/12/02 02:30:11;;;;;;;;;;;;;;;18.52;56.34;101997.69;2287697;78;51428;-75
2022/12/02 02:33:13;;;;;;;;;;;;;;;18.49;56.45;102002.34;2287832;77;51449;-75
2022/12/02 02:36:15;;;;;;;;;;;;;;;18.53;56.44;101999.39;2287860;78;50674;-76
2022/12/02 02:39:16;;;;;;;;;;;;;;;18.57;56.36;101994.89;2277021;78;52595;-75
2022/12/02 02:42:18;;;;;;;;;;;;;;;18.62;56.25;102006.02;2287802;77;50387;-75
2022/12/02 02:45:20;;;;;;;;;;;;;;;18.67;56.15;102001.55;2287676;78;50805;-75
2022/12/02 02:48:21;;;;;;;;;;;;;;;18.71;56.03;101997.58;2287896;78;50387;-76
2022/12/02 02:51:23;;;;;;;;;;;;;;;18.77;55.91;102002.36;2287890;78;50267;-75
2022/12/02 02:54:24;;;;;;;;;;;;;;;18.82;55.84;102000.06;2287740;77;50651;-74
2022/12/02 02:57:26;;;;;;;;;;;;;;;18.82;55.77;102000.06;2287891;78;51385;-75
2022/12/02 03:00:28;;;;;;;;;;;;;;;18.79;55.83;102000.38;2276891;78;51614;-74
2022/12/02 03:03:30;;;;;;;;;;;;;;;18.74;55.92;101991.91;2276618;78;52409;-75
2022/12/02 03:06:32;;;;;;;;;;;;;;;18.71;56.02;101997.58;2287901;78;50808;-75
2022/12/02 03:09:34;;;;;;;;;;;;;;;18.65;56.13;101995.02;2287852;78;50384;-75
2022/12/02 03:12:35;;;;;;;;;;;;;;;18.62;56.18;101991.77;2287852;77;50325;-75
2022/12/02 03:15:37;;;;;;;;;;;;;;;18.58;56.35;101991.74;2287902;78;51159;-75
2022/12/02 03:18:38;;;;;;;;;;;;;;;18.53;56.51;101986.83;2287311;78;51653;-75
2022/12/02 03:21:40;;;;;;;;;;;;;;;18.55;56.56;101983.50;2287873;77;51502;-75
2022/12/02 03:24:42;;;;;;;;;;;;;;;18.61;56.44;101984.73;2287690;78;51590;-76
2022/12/02 03:27:43;;;;;;;;;;;;;;;18.68;56.25;101979.96;2287861;77;51561;-75
2022/12/02 03:30:45;;;;;;;;;;;;;;;18.75;56.12;101980.68;2276777;77;51112;-75
2022/12/02 03:33:46;;;;;;;;;;;;;;;18.80;55.90;101982.44;2299502;77;50360;-75
2022/12/02 03:36:48;;;;;;;;;;;;;;;18.75;55.98;101982.89;2299731;77;50695;-76
2022/12/02 03:39:49;;;;;;;;;;;;;;;18.73;56.04;101982.19;2299596;77;50645;-75
2022/12/02 03:42:51;;;;;;;;;;;;;;;18.70;56.08;101974.42;2299578;77;50277;-75
2022/12/02 03:45:53;;;;;;;;;;;;;;;18.66;56.14;101972.56;2299565;77;50642;-76
2022/12/02 03:48:54;;;;;;;;;;;;;;;18.62;56.21;101971.66;2299663;77;49928;-75
2022/12/02 03:51:56;;;;;;;;;;;;;;;18.59;56.27;101967.95;2299619;77;50666;-75
2022/12/02 03:54:58;;;;;;;;;;;;;;;18.54;56.40;101972.42;2299572;77;50384;-75
2022/12/02 03:58:04;;;;;;;;;;;;;;;18.52;56.55;101965.02;2299616;77;50390;-74
2022/12/02 04:01:06;;;;;;;;;;;;;;;18.57;56.53;101967.25;2299627;77;51497;-75
2022/12/02 04:04:07;;;;;;;;;;;;;;;18.61;56.44;101964.63;2266117;77;49457;-75
2022/12/02 04:07:09;;;;;;;;;;;;;;;18.66;56.35;101964.52;2241512;77;50940;-74
2022/12/02 04:10:11;;;;;;;;;;;;;;;18.73;56.26;101967.45;2299609;77;51718;-75
2022/12/02 04:13:12;;;;;;;;;;;;;;;18.78;56.14;101962.50;2299588;77;50354;-75
2022/12/02 04:16:14;;;;;;;;;;;;;;;18.84;56.01;101951.66;2299544;77;52042;-75
2022/12/02 04:19:16;;;;;;;;;;;;;;;18.83;55.92;101950.82;2266258;77;52527;-75
2022/12/02 04:22:17;;;;;;;;;;;;;;;18.78;56.03;101953.12;2266247;77;51534;-75
2022/12/02 04:25:19;;;;;;;;;;;;;;;18.76;56.08;101955.10;2299455;77;51536;-75
2022/12/02 04:28:20;;;;;;;;;;;;;;;18.72;56.17;101952.33;2265874;77;51330;-75
2022/12/02 04:31:22;;;;;;;;;;;;;;;18.69;56.23;101958.00;2272007;78;49576;-77
2022/12/02 04:34:23;;;;;;;;;;;;;;;18.65;56.28;101961.50;2279245;78;50263;-77
2022/12/02 04:37:25;;;;;;;;;;;;;;;18.60;56.37;101957.09;2279202;78;50284;-76
2022/12/02 04:40:27;;;;;;;;;;;;;;;18.57;56.49;101956.53;2279242;77;50870;-76
2022/12/02 04:43:28;;;;;;;;;;;;;;;18.55;56.60;101955.83;2247108;78;49593;-77
2022/12/02 04:46:30;;;;;;;;;;;;;;;18.58;56.57;101951.03;2272386;78;50741;-77
2022/12/02 04:49:31;;;;;;;;;;;;;;;18.65;56.44;101955.27;2279244;78;50757;-76
2022/12/02 04:52:33;;;;;;;;;;;;;;;18.70;56.32;101960.55;2272093;78;53747;-76
2022/12/02 04:55:34;;;;;;;;;;;;;;;18.78;56.15;101962.98;2247191;78;52300;-76
2022/12/02 04:58:37;;;;;;;;;;;;;;;18.82;56.00;101956.33;2272171;78;51445;-77
2022/12/02 05:01:39;;;;;;;;;;;;;;;18.79;56.02;101958.81;2279091;78;50694;-75
2022/12/02 05:04:40;;;;;;;;;;;;;;;18.74;56.14;101955.71;2271949;78;51451;-73
2022/12/02 05:07:42;;;;;;;;;;;;;;;18.74;56.16;101946.83;2272083;78;51663;-74
2022/12/02 05:10:44;;;;;;;;;;;;;;;18.70;56.24;101949.83;2271952;78;51522;-74
2022/12/02 05:13:45;;;;;;;;;;;;;;;18.66;56.24;101945.75;2271318;78;51498;-73
2022/12/02 05:16:47;;;;;;;;;;;;;;;18.62;56.25;101947.53;2278496;78;51608;-74
2022/12/02 05:19:48;;;;;;;;;;;;;;;18.58;56.28;101940.81;2271146;78;51609;-74
2022/12/02 05:22:51;;;;;;;;;;;;;;;18.54;56.34;101942.09;2278480;78;51519;-73
2022/12/02 05:25:52;;;;;;;;;;;;;;;18.55;56.33;101942.42;2278235;78;50786;-74
2022/12/02 05:28:54;;;;;;;;;;;;;;;18.62;56.14;101943.52;2278848;78;51448;-74
2022/12/02 05:31:55;;;;;;;;;;;;;;;18.67;55.98;101937.20;2275910;77;51071;-74
2022/12/02 05:34:57;;;;;;;;;;;;;;;18.74;55.79;101934.27;2275977;78;49988;-75
2022/12/02 05:37:59;;;;;;;;;;;;;;;18.79;55.58;101941.38;2287704;78;51568;-75
2022/12/02 05:41:00;;;;;;;;;;;;;;;18.78;55.54;101937.50;2287368;78;50272;-75
2022/12/02 05:44:03;;;;;;;;;;;;;;;18.76;55.50;101936.33;2287043;77;50355;-75
2022/12/02 05:47:12;;;;;;;;;;;;;;;18.72;55.52;101943.78;2286063;77;50263;-74
2022/12/02 05:50:14;;;;;;;;;;;;;;;18.69;55.68;101947.28;2286571;77;51414;-74
2022/12/02 05:53:23;;;;;;;;;;;;;;;18.64;56.04;101936.17;2275815;78;50622;-74
2022/12/02 05:56:25;;;;;;;;;;;;;;;18.60;56.20;101948.18;2276056;78;52433;-73
2022/12/02 05:59:28;;;;;;;;;;;;;;;18.53;56.16;101937.23;2276026;78;50830;-73
2022/12/02 06:02:31;;;;;;;;;;;;;;;18.49;56.26;101935.34;2287151;77;50410;-74
2022/12/02 06:05:42;;;;;;;;;;;;;;;18.54;56.29;101939.41;2286942;78;51576;-74
2022/12/02 06:08:43;;;;;;;;;;;;;;;18.56;56.17;101930.73;2251090;78;50985;-76
2022/12/02 06:11:46;;;;;;;;;;;;;;;18.61;56.03;101931.95;2287275;77;50739;-74
2022/12/02 06:14:49;;;;;;;;;;;;;;;18.66;55.89;101936.36;2286980;77;50417;-75
2022/12/02 06:17:51;;;;;;;;;;;;;;;18.71;55.65;101938.09;2287043;77;50516;-74
2022/12/02 06:20:56;;;;;;;;;;;;;;;18.77;55.53;101943.37;2287101;78;51577;-74
2022/12/02 06:23:58;;;;;;;;;;;;;;;18.80;55.35;101940.88;2286889;77;51679;-74
2022/12/02 06:27:00;;;;;;;;;;;;;;;18.78;55.29;101942.39;2287193;78;51404;-74
2022/12/02 06:30:03;;;;;;;;;;;;;;;18.75;55.31;101949.84;2273753;78;50775;-74
2022/12/02 06:33:04;;;;;;;;;;;;;;;18.71;55.32;101954.69;2246739;78;52385;-76
2022/12/02 06:36:10;;;;;;;;;;;;;;;18.67;55.51;101962.67;2278134;78;51498;-76
2022/12/02 06:39:13;;;;;;;;;;;;;;;18.64;55.51;101965.66;2278431;78;50851;-75
2022/12/02 06:42:19;;;;;;;;;;;;;;;18.60;55.58;101960.24;2277724;78;50523;-75
2022/12/02 06:45:22;;;;;;;;;;;;;;;18.56;55.81;101965.58;2247236;78;52369;-76
2022/12/02 06:48:33;;;;;;;;;;;;;;;18.55;56.11;101962.53;2271533;78;50681;-75
2022/12/02 06:51:34;;;;;;;;;;;;;;;18.61;56.27;101968.65;2278331;78;51597;-74
2022/12/02 06:54:36;;;;;;;;;;;;;;;18.66;56.29;101965.86;2278154;78;50382;-74
2022/12/02 06:57:38;;;;;;;;;;;;;;;18.74;56.18;101969.63;2215440;79;51672;-75
2022/12/02 07:00:39;;;;;;;;;;;;;;;18.76;56.07;101975.21;2241415;79;51414;-75
2022/12/02 07:03:46;;;;;;;;;;;;;;;18.72;56.07;101971.94;2241183;79;50778;-75
2022/12/02 07:06:49;;;;;;;;;;;;;;;18.69;56.05;101959.34;2241396;79;51566;-75
2022/12/02 07:09:58;;;;;;;;;;;;;;;18.65;56.04;101961.97;2210981;79;52538;-75
2022/12/02 07:12:59;;;;;;;;;;;;;;;18.61;56.13;101957.42;2241363;79;50389;-73
2022/12/02 07:16:01;;;;;;;;;;;;;;;18.57;56.23;101957.37;2241270;79;50405;-75
2022/12/02 07:19:04;;;;;;;;;;;;;;;18.53;56.30;101948.46;2234858;79;50688;-76
2022/12/02 07:22:16;;;;;;;;;;;;;;;18.49;56.40;101950.08;2212035;79;51788;-76
2022/12/02 07:25:25;;;;;;;;;;;;;;;18.49;56.43;101954.60;2241401;79;51547;-75
2022/12/02 07:28:28;;;;;;;;;;;;;;;18.56;56.38;101954.35;2241510;79;51481;-75
2022/12/02 07:31:30;;;;;;;;;;;;;;;18.62;56.24;101950.22;2246675;78;51503;-75
2022/12/02 07:34:32;;;;;;;;;;;;;;;18.68;56.12;101946.95;2227072;79;51007;-76
2022/12/02 07:37:33;;;;;;;;;;;;;;;18.72;56.01;101955.02;2250331;79;50296;-76
2022/12/02 07:40:35;;;;;;;;;;;;;;;18.74;55.95;101959.73;2250388;79;50365;-75
2022/12/02 07:43:36;;;;;;;;;;;;;;;18.72;55.98;101957.70;2227269;79;50393;-75
2022/12/02 07:46:38;;;;;;;;;;;;;;;18.69;55.98;101960.69;2203194;79;51652;-75
2022/12/02 07:49:39;;;;;;;;;;;;;;;18.67;55.99;101962.16;2227037;79;51752;-75
2022/12/02 07:52:41;;;;;;;;;;;;;;;18.63;56.03;101978.73;2250299;78;50732;-76
2022/12/02 07:55:43;;;;;;;;;;;;;;;18.58;56.10;101977.84;2251627;78;51600;-76
2022/12/02 07:58:44;;;;;;;;;;;;;;;18.55;56.15;101971.91;2231577;79;53361;-75
2022/12/02 08:01:46;;;;;;;;;;;;;;;18.47;56.18;101966.83;2283228;77;50322;-76
2022/12/02 08:04:47;;;;;;;;;;;;;;;18.45;56.20;101960.77;2287049;78;50298;-75
2022/12/02 08:07:49;;;;;;;;;;;;;;;18.48;56.24;101967.67;2287330;78;50725;-75
2022/12/02 08:10:50;;;;;;;;;;;;;;;18.52;56.22;101974.90;2303363;76;51190;-75
2022/12/02 08:13:52;;;;;;;;;;;;;;;18.57;56.04;101968.59;2287028;78;50260;-75
2022/12/02 08:16:54;;;;;;;;;;;;;;;18.62;55.87;101967.64;2274061;78;51732;-74
2022/12/02 08:19:55;;;;;;;;;;;;;;;18.67;55.77;101961.33;2271244;78;51492;-76
2022/12/02 08:22:57;;;;;;;;;;;;;;;18.70;55.60;101965.91;2246343;78;52667;-76
2022/12/02 08:25:58;;;;;;;;;;;;;;;18.75;55.47;101961.44;2280931;78;51477;-75
2022/12/02 08:29:00;;;;;;;;;;;;;;;18.71;55.49;101964.91;2271041;78;51431;-74
2022/12/02 08:32:02;;;;;;;;;;;;;;;18.69;55.55;101967.39;2286572;77;51670;-72
2022/12/02 08:35:03;;;;;;;;;;;;;;;18.65;55.58;101965.52;2237042;78;52467;-74
2022/12/02 08:38:06;;;;;;;;;;;;;;;18.61;55.65;101970.83;2287374;78;50101;-75
2022/12/02 08:41:08;;;;;;;;;;;;;;;18.57;55.80;101964.57;2286484;77;50702;-72
2022/12/02 08:44:10;;;;;;;;;;;;;;;18.53;55.88;101969.91;2287142;77;50768;-75
2022/12/02 08:47:11;;;;;;;;;;;;;;;18.48;55.98;101972.53;2261869;78;52616;-74
2022/12/02 08:50:13;;;;;;;;;;;;;;;18.45;56.15;101966.13;2262215;78;51544;-73
2022/12/02 08:53:14;;;;;;;;;;;;;;;18.49;56.17;101972.02;2261808;78;51467;-73
2022/12/02 08:56:16;;;;;;;;;;;;;;;18.56;56.03;101969.59;2287277;78;50693;-75
2022/12/02 08:59:18;;;;;;;;;;;;;;;18.61;55.82;101964.12;2276257;78;52342;-73
2022/12/02 09:02:19;;;;;;;;;;;;;;;18.68;55.73;101972.42;2276264;78;51399;-74
2022/12/02 09:05:21;;;;;;;;;;;;;;;18.72;55.62;101964.40;2276101;78;50268;-74
2022/12/02 09:08:22;;;;;;;;;;;;;;;18.69;55.65;101974.93;2276591;78;50357;-73
2022/12/02 09:11:24;;;;;;;;;;;;;;;18.66;55.68;101965.02;2223977;79;51147;-74
2022/12/02 09:14:25;;;;;;;;;;;;;;;18.63;55.73;101957.28;2249307;79;50401;-74
2022/12/02 09:17:27;;;;;;;;;;;;;;;18.58;55.80;101955.05;2226601;79;50277;-74
2022/12/02 09:20:29;;;;;;;;;;;;;;;18.55;55.88;101966.55;2226581;79;50651;-72
2022/12/02 09:23:30;;;;;;;;;;;;;;;18.50;55.98;101967.87;2202255;79;52529;-74
2022/12/02 09:26:33;;;;;;;;;;;;;;;18.46;56.04;101961.11;2249496;79;51627;-72
2022/12/02 09:29:35;;;;;;;;;;;;;;;18.45;56.13;101958.59;2226812;79;50356;-73
2022/12/02 09:32:37;;;;;;;;;;;;;;;18.48;56.07;101960.47;2226396;79;52321;-72
2022/12/02 09:35:38;;;;;;;;;;;;;;;18.53;55.97;101959.19;2202359;79;51757;-76
2022/12/02 09:38:40;;;;;;;;;;;;;;;18.59;55.88;101965.27;2249440;79;50298;-73
2022/12/02 09:41:41;;;;;;;;;;;;;;;18.64;55.76;101967.00;2249319;79;50300;-73
2022/12/02 09:44:43;;;;;;;;;;;;;;;18.69;55.69;101968.23;2249087;79;50770;-74
2022/12/02 09:47:44;;;;;;;;;;;;;;;18.73;55.58;101952.70;2249507;79;51586;-76
2022/12/02 09:50:46;;;;;;;;;;;;;;;18.78;55.43;101947.75;2249311;79;51619;-75
2022/12/02 09:53:48;;;;;;;;;;;;;;;18.74;55.37;101947.67;2269740;78;51545;-75
2022/12/02 09:56:49;;;;;;;;;;;;;;;18.70;55.44;101947.62;2281107;78;51477;-74
2022/12/02 09:59:51;;;;;;;;;;;;;;;18.65;55.50;101935.16;2272057;78;52446;-72
2022/12/02 10:02:53;;;;;;;;;;;;;;;18.62;55.50;101952.39;2297640;77;50191;-73
2022/12/02 10:05:55;;;;;;;;;;;;;;;18.57;55.59;101952.51;2280839;78;50460;-73
2022/12/02 10:08:57;;;;;;;;;;;;;;;18.54;55.63;101948.30;2280891;78;51552;-72
2022/12/02 10:11:58;;;;;;;;;;;;;;;18.48;55.67;101941.70;2259137;78;51029;-73
2022/12/02 10:15:00;;;;;;;;;;;;;;;18.46;55.77;101937.48;2280760;78;51656;-72
2022/12/02 10:18:02;;;;;;;;;;;;;;;18.47;55.75;101934.67;2280976;78;50416;-72
2022/12/02 10:21:04;;;;;;;;;;;;;;;18.53;55.57;101924.34;2281099;78;51549;-73
2022/12/02 10:24:08;;;;;;;;;;;;;;;18.60;55.40;101924.05;2272152;78;51729;-74
2022/12/02 10:27:12;;;;;;;;;;;;;;;18.66;55.31;101924.80;2281308;78;50514;-72
2022/12/02 10:30:17;;;;;;;;;;;;;;;18.72;55.15;101927.70;2280602;77;50344;-71
2022/12/02 10:33:20;;;;;;;;;;;;;;;18.75;55.11;101914.52;2281010;78;50394;-75
2022/12/02 10:36:35;;;;;;;;;;;;;;;18.73;55.11;101923.20;2259476;78;51033;-75
2022/12/02 10:39:37;;;;;;;;;;;;;;;18.69;55.17;101911.92;2280940;78;50691;-72
2022/12/02 10:42:38;;;;;;;;;;;;;;;18.65;55.21;101909.22;2280877;78;51422;-71
2022/12/02 10:45:40;;;;;;;;;;;;;;;18.62;55.30;101914.03;2280876;78;50288;-72
2022/12/02 10:48:42;;;;;;;;;;;;;;;18.57;55.36;101911.80;2271794;78;51756;-73
2022/12/02 10:51:43;;;;;;;;;;;;;;;18.52;55.48;101910.07;2259956;78;51041;-71
2022/12/02 10:54:46;;;;;;;;;;;;;;;18.47;55.56;101909.20;2246441;78;51596;-74
2022/12/02 10:57:47;;;;;;;;;;;;;;;18.46;55.65;101907.50;2245789;79;50273;-74
2022/12/02 11:00:49;;;;;;;;;;;;;;;18.50;55.61;101910.74;2234595;79;51223;-73
2022/12/02 11:03:51;;;;;;;;;;;;;;;18.55;55.49;101906.23;2245911;79;50267;-73
2022/12/02 11:06:52;;;;;;;;;;;;;;;18.60;55.42;101902.14;2246194;79;50618;-73
2022/12/02 11:09:55;;;;;;;;;;;;;;;18.66;55.29;101898.83;2246459;79;50689;-74
2022/12/02 11:12:58;;;;;;;;;;;;;;;18.71;55.17;101892.52;2235549;78;52538;-75
2022/12/02 11:16:18;;;;;;;;;;;;;;;18.76;55.08;101900.13;2246310;79;51570;-75
2022/12/02 11:19:36;;;;;;;;;;;;;;;18.81;55.15;101900.52;2246487;79;51582;-76
2022/12/02 11:22:45;;;;;;;;;;;;;;;18.79;55.20;101897.64;2245807;79;51632;-75
2022/12/02 11:25:49;;;;;;;;;;;;;;;18.75;55.22;101895.75;2221499;79;50995;-76
2022/12/02 11:29:07;;;;;;;;;;;;;;;18.70;55.26;101888.63;2245628;79;51620;-76
2022/12/02 11:32:13;;;;;;;;;;;;;;;18.67;55.25;101890.28;2157256;82;50701;-77
2022/12/02 11:35:15;;;;;;;;;;;;;;;18.61;55.35;101880.19;2198492;79;50723;-77
2022/12/02 11:38:19;;;;;;;;;;;;;;;18.54;55.57;101879.94;2172650;81;49904;-76
2022/12/02 11:41:21;;;;;;;;;;;;;;;18.49;55.69;101884.41;2203149;80;51629;-76
2022/12/02 11:44:29;;;;;;;;;;;;;;;18.53;55.78;101876.09;2230891;79;50288;-77
2022/12/02 11:47:31;;;;;;;;;;;;;;;18.57;55.79;101883.66;2203549;79;51555;-77
2022/12/02 11:50:34;;;;;;;;;;;;;;;18.63;55.71;101867.48;2186360;81;50478;-76
2022/12/02 11:53:36;;;;;;;;;;;;;;;18.71;55.50;101871.06;2190092;81;50329;-77
2022/12/02 11:56:38;;;;;;;;;;;;;;;18.77;55.37;101865.61;2184417;81;50741;-77
2022/12/02 11:59:40;;;;;;;;;;;;;;;18.81;55.20;101865.66;2188521;80;51487;-77
2022/12/02 12:02:41;;;;;;;;;;;;;;;18.82;54.97;101863.30;2192414;81;49651;-76
2022/12/02 12:05:45;;;;;;;;;;;;;;;18.78;55.08;101875.36;2220004;78;50626;-77
2022/12/02 12:08:50;;;;;;;;;;;;;;;18.72;55.05;101870.56;2276407;76;50806;-78
2022/12/02 12:12:10;;;;;;;;;;;;;;;18.68;55.12;101875.91;2279862;76;51539;-77
2022/12/02 12:15:12;;;;;;;;;;;;;;;18.62;55.20;101877.33;2229761;78;51902;-77
2022/12/02 12:18:15;;;;;;;;;;;;;;;18.60;55.17;101873.13;2269995;77;51497;-77
2022/12/02 12:21:41;;;;;;;;;;;;;;;18.54;55.23;101875.92;2297020;77;51472;-76
2022/12/02 12:24:37;;;;;;;;;;;;;;;18.57;55.22;101874.77;2298352;77;22764;-76
2022/12/02 12:27:39;;;;;;;;;;;;;;;18.63;55.10;101870.16;2300758;77;51468;-77
2022/12/02 12:30:40;;;;;;;;;;;;;;;18.66;55.05;101873.36;2285782;76;51428;-77
2022/12/02 12:33:42;;;;;;;;;;;;;;;18.72;54.96;101882.13;2279374;77;51471;-76
2022/12/02 12:36:44;;;;;;;;;;;;;;;18.79;54.76;101875.69;2281322;76;50325;-76
2022/12/02 12:39:45;;;;;;;;;;;;;;;18.83;54.68;101867.69;2289274;77;52447;-76
2022/12/02 12:42:47;;;;;;;;;;;;;;;18.85;54.63;101867.01;2332719;76;51414;-78
2022/12/02 12:45:48;;;;;;;;;;;;;;;18.87;54.61;101873.58;2332440;76;50247;-77
2022/12/02 12:48:50;;;;;;;;;;;;;;;18.81;54.74;101864.31;2297304;76;50056;-78
2022/12/02 12:51:52;;;;;;;;;;;;;;;18.78;54.85;101865.10;2332392;76;50194;-75
2022/12/02 12:54:53;;;;;;;;;;;;;;;18.73;55.02;101872.27;2278122;77;49630;-78
2022/12/02 12:57:55;;;;;;;;;;;;;;;18.67;55.21;101866.16;2282365;77;51520;-77
2022/12/02 13:00:56;;;;;;;;;;;;;;;18.61;55.33;101866.28;2293560;77;50244;-77
2022/12/02 13:03:58;;;;;;;;;;;;;;;18.53;55.49;101861.34;2261643;78;51548;-76
2022/12/02 13:07:00;;;;;;;;;;;;;;;18.49;55.62;101861.63;2313496;77;51484;-76
2022/12/02 13:10:01;;;;;;;;;;;;;;;18.56;55.57;101867.73;2289644;77;50732;-78
2022/12/02 13:13:04;;;;;;;;;;;;;;;18.64;55.41;101861.11;2250356;78;50749;-77
2022/12/02 13:16:05;;;;;;;;;;;;;;;18.73;55.21;101865.56;2223102;78;51024;-77
2022/12/02 13:19:07;;;;;;;;;;;;;;;18.80;55.05;101859.09;2247430;78;51567;-77
2022/12/02 13:22:09;;;;;;;;;;;;;;;18.85;54.88;101856.28;2270590;78;51542;-76
2022/12/02 13:25:11;;;;;;;;;;;;;;;18.88;54.77;101862.70;2270419;78;51543;-76
2022/12/02 13:28:12;;;;;;;;;;;;;;;18.88;54.70;101862.70;2222888;78;52508;-77
2022/12/02 13:31:14;;;;;;;;;;;;;;;18.83;54.76;101862.80;2218630;78;50762;-77
2022/12/02 13:34:15;;;;;;;;;;;;;;;18.77;54.83;101868.29;2294603;77;51495;-76
2022/12/02 13:37:17;;;;;;;;;;;;;;;18.73;54.92;101868.23;2277061;77;51461;-77
2022/12/02 13:40:19;;;;;;;;;;;;;;;18.67;54.98;101868.84;2249874;78;51178;-76
2022/12/02 13:43:20;;;;;;;;;;;;;;;18.65;54.96;101868.14;2291531;77;51533;-77
2022/12/02 13:46:22;;;;;;;;;;;;;;;18.60;55.11;101875.80;2250256;78;50109;-77
2022/12/02 13:49:23;;;;;;;;;;;;;;;18.62;55.08;101877.84;2311087;76;50270;-76
2022/12/02 13:52:25;;;;;;;;;;;;;;;18.62;55.05;101876.50;2268214;77;49518;-77
2022/12/02 13:55:27;;;;;;;;;;;;;;;18.68;54.94;101877.24;2244662;78;50425;-76
2022/12/02 13:58:28;;;;;;;;;;;;;;;18.70;54.93;101875.23;2280470;77;51416;-76
2022/12/02 14:01:30;;;;;;;;;;;;;;;18.76;54.85;101877.34;2282567;77;51591;-76
2022/12/02 14:04:31;;;;;;;;;;;;;;;18.81;54.71;101879.56;2258866;78;51424;-78
2022/12/02 14:07:33;;;;;;;;;;;;;;;18.87;54.53;101880.28;2325343;76;51447;-77
2022/12/02 14:10:34;;;;;;;;;;;;;;;18.92;54.35;101882.00;2325589;76;50390;-77
2022/12/02 14:13:36;;;;;;;;;;;;;;;18.89;54.26;101885.83;2324134;76;50475;-77
2022/12/02 14:16:38;;;;;;;;;;;;;;;18.88;54.21;101890.86;2293227;76;51705;-76
2022/12/02 14:19:39;;;;;;;;;;;;;;;18.83;54.23;101887.80;2324981;76;50629;-77
2022/12/02 14:22:41;;;;;;;;;;;;;;;18.79;54.26;101893.63;2325190;76;51551;-76
2022/12/02 14:25:43;;;;;;;;;;;;;;;18.74;54.36;101894.55;2325136;76;50350;-77
2022/12/02 14:28:45;;;;;;;;;;;;;;;18.66;54.46;101901.52;2291566;76;50089;-77
2022/12/02 14:31:46;;;;;;;;;;;;;;;18.62;54.57;101903.30;2325263;76;51447;-76
2022/12/02 14:34:48;;;;;;;;;;;;;;;18.57;54.66;101904.26;2325822;76;51441;-77
2022/12/02 14:37:49;;;;;;;;;;;;;;;18.62;54.62;101903.30;2324166;76;51498;-77
2022/12/02 14:40:51;;;;;;;;;;;;;;;18.66;54.56;101903.36;2297411;76;52342;-77
2022/12/02 14:43:52;;;;;;;;;;;;;;;18.71;54.47;101907.26;2324997;76;50302;-76
2022/12/02 14:46:54;;;;;;;;;;;;;;;18.79;54.30;101916.41;2324991;76;50008;-76
2022/12/02 14:49:56;;;;;;;;;;;;;;;18.85;54.17;101909.08;2323498;76;50279;-76
2022/12/02 14:52:57;;;;;;;;;;;;;;;18.91;54.01;101916.02;2291090;76;50077;-76
2022/12/02 14:55:59;;;;;;;;;;;;;;;18.93;53.90;101915.85;2324838;76;50314;-75
2022/12/02 14:59:00;;;;;;;;;;;;;;;18.92;53.81;101916.86;2323519;76;50377;-75
2022/12/02 15:02:02;;;;;;;;;;;;;;;18.88;53.83;101916.81;2325032;76;50734;-76
2022/12/02 15:05:04;;;;;;;;;;;;;;;18.82;53.91;101918.28;2291148;76;50957;-76
2022/12/02 15:08:05;;;;;;;;;;;;;;;18.76;53.94;101916.73;2324024;76;50653;-75
2022/12/02 15:11:07;;;;;;;;;;;;;;;18.70;54.01;101910.08;2324926;76;51470;-76
2022/12/02 15:14:09;;;;;;;;;;;;;;;18.64;54.16;101918.75;2310585;76;51629;-76
2022/12/02 15:17:10;;;;;;;;;;;;;;;18.60;54.20;101918.69;2297089;76;51700;-76
2022/12/02 15:20:12;;;;;;;;;;;;;;;18.58;54.29;101913.50;2271362;76;51433;-75
2022/12/02 15:23:13;;;;;;;;;;;;;;;18.62;54.25;101915.37;2262413;75;50612;-76
2022/12/02 15:26:15;;;;;;;;;;;;;;;18.66;54.22;101908.72;2351856;74;50661;-75
2022/12/02 15:29:17;;;;;;;;;;;;;;;18.73;54.05;101913.82;2290405;76;52488;-75
2022/12/02 15:32:18;;;;;;;;;;;;;;;18.78;53.94;101917.39;2265680;77;51456;-77
2022/12/02 15:35:20;;;;;;;;;;;;;;;18.82;53.86;101923.64;2269826;78;51556;-77
2022/12/02 15:38:21;;;;;;;;;;;;;;;18.86;53.71;101912.97;2273077;77;50744;-77